createdAt,value
2018-03-20T12:54:10.853Z,21.75
2018-03-20T12:55:10.981Z,21.60
2018-03-20T12:56:11.111Z,21.47
2018-03-20T12:57:11.226Z,21.41
2018-03-20T12:58:11.342Z,21.35
2018-03-20T12:59:11.479Z,21.19
2018-03-20T13:00:21.354Z,21.05
2018-03-20T13:01:11.741Z,21.00
2018-03-20T13:02:11.874Z,20.98
2018-03-20T13:03:12.016Z,20.89
2018-03-20T13:04:12.117Z,20.86
2018-03-20T13:05:12.212Z,20.85
2018-03-20T13:08:08.765Z,20.86
2018-03-20T13:13:12.799Z,20.63
2018-03-20T13:14:12.915Z,20.67
2018-03-20T13:15:16.117Z,20.65
2018-03-20T13:16:13.585Z,20.55
2018-03-20T13:17:13.378Z,20.63
2018-03-20T13:18:13.529Z,20.58
2018-03-20T13:19:13.654Z,20.49
2018-03-20T13:20:13.767Z,20.52
2018-03-20T13:21:16.643Z,20.50
2018-03-20T13:22:14.114Z,20.49
2018-03-20T13:23:14.420Z,20.50
2018-03-20T13:30:15.051Z,20.52
2018-03-20T13:33:47.192Z,20.48
2018-03-20T13:34:47.319Z,20.53
2018-03-20T13:35:47.453Z,20.58
2018-03-20T13:36:47.563Z,20.48
2018-03-20T13:37:47.706Z,20.52
2018-03-20T13:38:47.870Z,20.55
2018-03-20T13:39:47.977Z,20.61
2018-03-20T13:40:48.096Z,20.56
2018-03-20T13:41:48.210Z,20.65
2018-03-20T13:42:48.336Z,20.63
2018-03-20T13:43:48.513Z,20.56
2018-03-20T13:44:48.770Z,20.50
2018-03-20T13:49:18.032Z,20.42
2018-03-20T13:50:18.171Z,20.49
2018-03-20T13:51:18.299Z,20.46
2018-03-20T13:52:18.428Z,20.39
2018-03-20T13:53:18.589Z,20.37
2018-03-20T13:54:18.697Z,20.33
2018-03-20T13:55:18.830Z,20.55
2018-03-20T13:56:18.931Z,20.37
2018-03-20T13:57:19.190Z,20.48
2018-03-20T13:58:19.213Z,20.46
2018-03-20T13:59:19.934Z,20.41
2018-03-20T14:02:15.764Z,20.48
2018-03-20T14:03:15.886Z,20.44
2018-03-20T14:06:08.470Z,20.50
2018-03-20T14:07:08.560Z,20.52
2018-03-20T14:08:08.672Z,20.56
2018-03-20T14:09:08.817Z,20.50
2018-03-20T14:10:08.976Z,20.61
2018-03-20T14:11:09.077Z,20.63
2018-03-20T14:12:09.188Z,20.65
2018-03-20T14:13:09.330Z,20.61
2018-03-20T14:14:09.469Z,20.73
2018-03-20T14:15:09.587Z,20.68
2018-03-20T14:16:09.711Z,20.68
2018-03-20T14:17:09.836Z,20.73
2018-03-20T14:18:11.294Z,20.65
2018-03-20T14:19:44.219Z,20.73
2018-03-20T14:20:34.743Z,20.77
2018-03-20T14:21:34.848Z,20.73
2018-03-20T14:22:34.979Z,20.74
2018-03-20T14:23:35.115Z,20.68
2018-03-20T14:24:35.249Z,20.70
2018-03-20T14:25:35.380Z,20.74
2018-03-20T14:26:35.510Z,20.68
2018-03-20T14:27:35.644Z,20.71
2018-03-20T14:28:35.819Z,20.68
2018-03-20T14:29:35.952Z,20.64
2018-03-20T14:30:36.037Z,20.68
2018-03-20T14:31:36.267Z,20.67
2018-03-20T14:32:36.377Z,20.67
2018-03-20T14:33:36.506Z,20.64
2018-03-20T14:34:36.603Z,20.68
2018-03-20T14:35:36.736Z,20.64
2018-03-20T14:36:36.881Z,20.73
2018-03-20T14:37:37.159Z,20.67
2018-03-20T14:38:37.208Z,20.67
2018-03-20T14:39:37.325Z,20.70
2018-03-20T14:40:37.458Z,20.68
2018-03-20T14:41:37.604Z,20.70
2018-03-20T14:42:37.749Z,20.80
2018-03-20T14:43:37.863Z,20.79
2018-03-20T14:44:38.611Z,20.80
2018-03-20T14:45:38.110Z,20.75
2018-03-20T14:46:38.243Z,20.82
2018-03-20T14:47:38.384Z,20.79
2018-03-20T14:51:43.080Z,20.77
2018-03-20T14:52:43.209Z,20.67
2018-03-20T14:53:43.090Z,20.70
2018-03-20T14:54:43.214Z,20.71
2018-03-20T14:55:43.349Z,20.65
2018-03-20T14:56:43.483Z,20.74
2018-03-20T14:57:43.705Z,20.71
2018-03-20T14:58:43.729Z,20.74
2018-03-20T14:59:43.868Z,20.67
2018-03-20T15:00:44.047Z,20.77
2018-03-20T15:01:44.133Z,20.71
2018-03-20T15:04:40.435Z,20.73
2018-03-20T15:05:40.572Z,20.68
2018-03-20T15:06:40.702Z,20.68
2018-03-20T15:07:40.809Z,20.65
2018-03-20T15:08:40.934Z,20.70
2018-03-20T15:09:41.070Z,20.77
2018-03-20T15:10:41.199Z,20.80
2018-03-20T15:11:41.343Z,20.77
2018-03-20T15:12:41.464Z,20.79
2018-03-20T15:13:41.597Z,20.75
2018-03-20T15:14:41.738Z,20.77
2018-03-20T15:15:42.136Z,20.71
2018-03-20T15:29:24.466Z,20.97
2018-03-20T15:30:24.601Z,20.92
2018-03-20T15:31:24.746Z,20.98
2018-03-20T15:32:24.917Z,20.97
2018-03-20T15:33:25.007Z,20.93
2018-03-20T15:34:25.127Z,20.97
2018-03-20T15:35:25.271Z,20.97
2018-03-20T15:36:25.403Z,21.00
2018-03-20T15:37:25.529Z,20.95
2018-03-20T15:38:25.661Z,20.93
2018-03-20T15:39:25.795Z,20.98
2018-03-20T15:40:26.276Z,20.97
2018-03-20T15:41:26.063Z,21.04
2018-03-20T15:42:26.190Z,20.93
2018-03-20T15:43:26.320Z,20.98
2018-03-20T15:44:26.458Z,20.95
2018-03-20T15:45:26.591Z,20.98
2018-03-20T15:46:26.727Z,20.98
2018-03-20T15:47:26.866Z,20.98
2018-03-20T15:48:26.969Z,20.92
2018-03-20T15:49:27.074Z,20.86
2018-03-20T15:50:27.232Z,20.82
2018-03-20T15:51:28.733Z,20.82
2018-03-20T16:01:43.327Z,20.93
2018-03-20T16:02:43.472Z,20.97
2018-03-20T16:03:43.601Z,20.98
2018-03-20T16:04:43.673Z,20.98
2018-03-20T16:05:43.810Z,20.93
2018-03-20T16:06:43.963Z,20.93
2018-03-20T16:07:44.083Z,20.92
2018-03-20T16:08:44.198Z,20.90
2018-03-20T16:09:44.314Z,20.92
2018-03-20T16:10:44.565Z,20.82
2018-03-20T16:11:44.630Z,20.83
2018-03-20T16:12:45.154Z,20.73
2018-03-20T16:19:46.002Z,20.67
2018-03-20T16:20:46.111Z,20.67
2018-03-20T16:21:46.233Z,20.74
2018-03-20T16:22:46.349Z,20.71
2018-03-20T16:23:46.495Z,20.67
2018-03-20T16:24:46.647Z,20.68
2018-03-20T16:25:46.760Z,20.73
2018-03-20T16:26:46.878Z,20.82
2018-03-20T16:27:47.015Z,20.79
2018-03-20T16:28:47.155Z,20.73
2018-03-20T16:29:47.579Z,20.83
2018-03-20T16:34:16.635Z,20.88
2018-03-20T16:35:16.775Z,20.88
2018-03-20T16:36:16.917Z,20.80
2018-03-20T16:37:17.041Z,20.85
2018-03-20T16:38:17.161Z,20.85
2018-03-20T16:39:17.269Z,20.77
2018-03-20T16:40:17.431Z,20.82
2018-03-20T16:41:17.578Z,20.82
2018-03-20T16:42:17.686Z,20.89
2018-03-20T16:43:17.820Z,20.89
2018-03-20T16:44:18.016Z,20.83
2018-03-20T16:45:18.116Z,20.79
2018-03-20T16:46:18.227Z,20.71
2018-03-20T16:47:18.361Z,20.82
2018-03-20T16:48:18.523Z,20.77
2018-03-20T16:49:18.629Z,20.80
2018-03-20T16:50:18.770Z,20.80
2018-03-20T16:51:18.880Z,20.67
2018-03-20T16:52:19.020Z,20.70
2018-03-20T16:53:19.202Z,20.70
2018-03-20T16:54:23.694Z,20.70
2018-03-20T16:57:15.922Z,20.70
2018-03-20T16:58:16.034Z,20.67
2018-03-20T16:59:16.196Z,20.73
2018-03-20T17:00:16.290Z,20.64
2018-03-20T17:01:16.441Z,20.71
2018-03-20T17:02:16.591Z,20.71
2018-03-20T17:03:16.699Z,20.67
2018-03-20T17:04:16.830Z,20.71
2018-03-20T17:05:16.981Z,20.71
2018-03-20T17:06:17.130Z,20.65
2018-03-20T17:07:17.307Z,20.71
2018-03-20T17:08:19.495Z,20.65
2018-03-20T17:11:13.445Z,20.71
2018-03-20T17:12:13.582Z,20.64
2018-03-20T17:13:13.705Z,20.67
2018-03-20T17:14:13.827Z,20.67
2018-03-20T17:15:13.957Z,20.70
2018-03-20T17:16:14.093Z,20.65
2018-03-20T17:17:14.220Z,20.70
2018-03-20T17:18:14.404Z,20.70
2018-03-20T17:19:14.550Z,20.67
2018-03-20T17:20:14.674Z,20.55
2018-03-20T17:21:14.805Z,20.52
2018-03-20T17:22:15.148Z,20.53
2018-03-20T17:23:15.141Z,20.58
2018-03-20T17:24:15.228Z,20.55
2018-03-20T17:25:15.385Z,20.46
2018-03-20T17:26:15.517Z,20.48
2018-03-20T17:27:15.635Z,20.49
2018-03-20T17:28:15.768Z,20.42
2018-03-20T17:29:15.924Z,20.42
2018-03-20T17:30:16.060Z,20.41
2018-03-20T17:31:16.181Z,20.39
2018-03-20T17:32:16.332Z,20.39
2018-03-20T17:33:16.468Z,20.39
2018-03-20T17:34:16.602Z,20.37
2018-03-20T17:35:16.725Z,20.33
2018-03-20T17:36:16.858Z,20.34
2018-03-20T17:37:16.974Z,20.29
2018-03-20T17:38:17.108Z,20.39
2018-03-20T17:39:17.253Z,20.33
2018-03-20T17:40:17.559Z,20.26
2018-03-20T17:44:45.471Z,20.22
2018-03-20T17:45:45.622Z,20.19
2018-03-20T17:46:45.764Z,20.18
2018-03-20T17:47:45.874Z,20.12
2018-03-20T17:48:46.004Z,20.23
2018-03-20T17:49:46.124Z,20.00
2018-03-20T17:50:46.263Z,20.08
2018-03-20T17:51:46.397Z,20.12
2018-03-20T17:52:46.522Z,20.04
2018-03-20T17:53:46.657Z,20.02
2018-03-20T17:54:46.782Z,20.00
2018-03-20T17:55:46.968Z,20.14
2018-03-20T17:56:47.161Z,20.05
2018-03-20T18:01:15.787Z,20.18
2018-03-20T18:02:15.917Z,20.22
2018-03-20T18:03:16.049Z,20.18
2018-03-20T18:04:16.177Z,20.14
2018-03-20T18:05:16.308Z,20.18
2018-03-20T18:06:16.439Z,20.30
2018-03-20T18:07:16.572Z,20.19
2018-03-20T18:08:16.701Z,20.17
2018-03-20T18:09:16.837Z,20.11
2018-03-20T18:10:16.960Z,20.12
2018-03-20T18:11:17.155Z,20.11
2018-03-20T18:20:20.333Z,20.12
2018-03-20T18:21:20.466Z,20.04
2018-03-20T18:22:20.594Z,20.08
2018-03-20T18:23:20.728Z,20.04
2018-03-20T18:24:20.856Z,20.14
2018-03-20T18:25:21.036Z,20.04
2018-03-20T18:26:21.118Z,20.04
2018-03-20T18:27:21.249Z,20.09
2018-03-20T18:28:21.380Z,20.07
2018-03-20T18:29:21.497Z,20.09
2018-03-20T18:30:21.634Z,20.07
2018-03-20T18:31:23.293Z,20.09
2018-03-20T18:35:50.402Z,20.08
2018-03-20T18:36:50.518Z,20.00
2018-03-20T18:37:50.657Z,20.07
2018-03-20T18:38:50.793Z,20.04
2018-03-20T18:39:50.937Z,20.02
2018-03-20T18:40:51.074Z,20.00
2018-03-20T18:41:51.177Z,20.08
2018-03-20T18:42:51.365Z,20.02
2018-03-20T18:43:51.466Z,20.04
2018-03-20T18:44:51.601Z,20.11
2018-03-20T18:45:51.707Z,20.02
2018-03-20T18:46:52.051Z,20.09
2018-03-20T18:56:56.901Z,20.04
2018-03-20T18:57:57.040Z,19.99
2018-03-20T18:58:57.182Z,19.96
2018-03-20T18:59:57.308Z,20.00
2018-03-20T19:00:57.443Z,19.99
2018-03-20T19:01:57.574Z,20.09
2018-03-20T19:02:57.719Z,20.02
2018-03-20T19:03:57.842Z,20.09
2018-03-20T19:04:57.994Z,20.00
2018-03-20T19:05:58.089Z,20.07
2018-03-20T19:06:58.220Z,20.14
2018-03-20T19:07:59.085Z,20.02
2018-03-20T19:17:04.103Z,20.02
2018-03-20T19:18:04.235Z,19.93
2018-03-20T19:19:04.383Z,19.94
2018-03-20T19:20:04.509Z,19.89
2018-03-20T19:21:04.642Z,19.94
2018-03-20T19:22:04.776Z,19.92
2018-03-20T19:23:04.922Z,19.90
2018-03-20T19:24:05.061Z,19.94
2018-03-20T19:25:05.188Z,19.89
2018-03-20T19:26:05.305Z,19.86
2018-03-20T19:27:08.529Z,19.93
2018-03-20T19:28:05.533Z,19.82
2018-03-20T19:29:05.678Z,19.71
2018-03-20T19:30:05.801Z,19.82
2018-03-20T19:31:05.941Z,19.77
2018-03-20T19:32:06.055Z,19.72
2018-03-20T19:33:06.185Z,19.75
2018-03-20T19:34:06.323Z,19.77
2018-03-20T19:35:06.452Z,19.71
2018-03-20T19:36:06.583Z,19.71
2018-03-20T19:37:06.708Z,19.70
2018-03-20T19:38:08.320Z,19.67
2018-03-20T19:42:55.608Z,19.64
2018-03-20T19:43:55.746Z,19.60
2018-03-20T19:44:55.876Z,19.60
2018-03-20T19:45:56.004Z,19.57
2018-03-20T19:46:56.131Z,19.57
2018-03-20T19:47:56.263Z,19.59
2018-03-20T19:48:56.412Z,19.67
2018-03-20T19:49:56.542Z,19.67
2018-03-20T19:50:56.673Z,19.63
2018-03-20T19:51:56.808Z,19.64
2018-03-20T19:52:56.937Z,19.70
2018-03-20T19:53:57.109Z,19.63
2018-03-20T19:54:57.191Z,19.62
2018-03-20T19:55:57.325Z,19.64
2018-03-20T19:56:57.454Z,19.64
2018-03-20T19:57:57.583Z,19.67
2018-03-20T19:58:57.725Z,19.70
2018-03-20T19:59:57.840Z,19.81
2018-03-20T20:00:57.973Z,19.89
2018-03-20T20:01:58.324Z,19.81
2018-03-20T20:06:27.219Z,19.86
2018-03-20T20:07:27.354Z,19.89
2018-03-20T20:08:27.489Z,20.00
2018-03-20T20:09:27.613Z,19.93
2018-03-20T20:10:27.727Z,19.96
2018-03-20T20:11:27.858Z,20.00
2018-03-20T20:12:27.990Z,19.99
2018-03-20T20:13:28.120Z,19.97
2018-03-20T20:14:28.276Z,20.04
2018-03-20T20:15:28.372Z,20.08
2018-03-20T20:16:29.036Z,20.05
2018-03-20T20:20:58.103Z,19.99
2018-03-20T20:21:58.205Z,19.89
2018-03-20T20:22:58.343Z,20.00
2018-03-20T20:23:58.482Z,19.86
2018-03-20T20:24:58.645Z,19.94
2018-03-20T20:25:58.748Z,19.92
2018-03-20T20:26:58.882Z,19.94
2018-03-20T20:27:59.023Z,19.89
2018-03-20T20:32:23.462Z,19.84
2018-03-20T20:33:23.596Z,19.86
2018-03-20T20:34:23.707Z,19.92
2018-03-20T20:35:23.844Z,19.82
2018-03-20T20:36:23.974Z,19.87
2018-03-20T20:37:24.111Z,19.87
2018-03-20T20:38:24.243Z,19.89
2018-03-20T20:39:24.381Z,19.84
2018-03-20T20:40:24.510Z,19.87
2018-03-20T20:41:24.641Z,19.84
2018-03-20T20:42:24.891Z,19.92
2018-03-20T20:48:25.506Z,19.92
2018-03-20T20:49:25.637Z,19.86
2018-03-20T20:50:25.790Z,19.87
2018-03-20T20:51:25.918Z,19.81
2018-03-20T20:52:26.051Z,19.79
2018-03-20T20:53:26.169Z,19.63
2018-03-20T20:54:26.299Z,19.62
2018-03-20T20:55:26.443Z,19.71
2018-03-20T20:56:26.583Z,19.75
2018-03-20T20:57:26.705Z,19.67
2018-03-20T20:58:26.855Z,19.71
2018-03-20T21:01:23.849Z,19.79
2018-03-20T21:02:23.976Z,19.74
2018-03-20T21:03:24.103Z,19.77
2018-03-20T21:04:24.252Z,19.82
2018-03-20T21:05:24.389Z,19.68
2018-03-20T21:06:25.688Z,19.68
2018-03-20T21:07:24.717Z,19.77
2018-03-20T21:12:28.542Z,19.64
2018-03-20T21:13:28.673Z,19.71
2018-03-20T21:14:28.805Z,19.64
2018-03-20T21:15:28.971Z,19.50
2018-03-20T21:16:29.084Z,19.59
2018-03-20T21:17:29.188Z,19.54
2018-03-20T21:18:29.325Z,19.60
2018-03-20T21:19:29.456Z,19.56
2018-03-20T21:20:29.586Z,19.54
2018-03-20T21:21:29.722Z,19.54
2018-03-20T21:22:29.845Z,19.52
2018-03-20T21:23:30.349Z,19.52
2018-03-20T21:26:26.398Z,19.37
2018-03-20T21:27:26.528Z,19.34
2018-03-20T21:28:26.662Z,19.44
2018-03-20T21:29:26.794Z,19.49
2018-03-20T21:30:26.948Z,19.52
2018-03-20T21:31:27.049Z,19.47
2018-03-20T21:32:27.182Z,19.41
2018-03-20T21:33:27.319Z,19.50
2018-03-20T21:34:27.492Z,19.44
2018-03-20T21:35:27.588Z,19.35
2018-03-20T21:36:27.718Z,19.53
2018-03-20T21:37:28.034Z,19.50
2018-03-20T21:43:28.650Z,19.45
2018-03-20T21:44:28.772Z,19.41
2018-03-20T21:45:28.900Z,19.45
2018-03-20T21:46:29.038Z,19.49
2018-03-20T21:47:29.165Z,19.53
2018-03-20T21:48:29.296Z,19.41
2018-03-20T21:49:29.426Z,19.47
2018-03-20T21:50:29.557Z,19.62
2018-03-20T21:51:29.688Z,19.53
2018-03-20T21:52:29.821Z,19.68
2018-03-20T21:53:29.946Z,19.64
2018-03-20T21:54:31.380Z,19.75
2018-03-20T21:59:00.258Z,19.78
2018-03-20T22:00:00.396Z,19.77
2018-03-20T22:01:00.519Z,19.64
2018-03-20T22:02:00.657Z,19.72
2018-03-20T22:03:00.791Z,19.63
2018-03-20T22:04:00.918Z,19.56
2018-03-20T22:05:01.047Z,19.54
2018-03-20T22:06:01.171Z,19.60
2018-03-20T22:07:01.301Z,19.56
2018-03-20T22:08:01.419Z,19.60
2018-03-20T22:09:01.547Z,19.62
2018-03-20T22:13:30.303Z,19.52
2018-03-20T22:14:30.432Z,19.37
2018-03-20T22:15:30.578Z,19.52
2018-03-20T22:16:30.711Z,19.38
2018-03-20T22:17:30.836Z,19.41
2018-03-20T22:18:30.964Z,19.42
2018-03-20T22:19:31.100Z,19.45
2018-03-20T22:20:31.224Z,19.45
2018-03-20T22:21:31.363Z,19.35
2018-03-20T22:22:31.476Z,19.41
2018-03-20T22:23:31.795Z,19.45
2018-03-20T22:28:00.321Z,19.63
2018-03-20T22:29:00.464Z,19.59
2018-03-20T22:30:00.602Z,19.62
2018-03-20T22:31:00.727Z,19.53
2018-03-20T22:32:00.851Z,19.59
2018-03-20T22:33:00.984Z,19.60
2018-03-20T22:34:01.113Z,19.57
2018-03-20T22:35:01.261Z,19.49
2018-03-20T22:36:01.376Z,19.47
2018-03-20T22:37:01.492Z,19.37
2018-03-20T22:38:04.249Z,19.39
2018-03-20T22:39:01.741Z,19.52
2018-03-20T22:40:01.913Z,19.42
2018-03-20T22:41:02.019Z,19.47
2018-03-20T22:42:02.127Z,19.41
2018-03-20T22:43:02.263Z,19.49
2018-03-20T22:44:02.390Z,19.59
2018-03-20T22:45:02.540Z,19.60
2018-03-20T22:46:02.666Z,19.60
2018-03-20T22:47:02.788Z,19.54
2018-03-20T22:48:02.909Z,19.54
2018-03-20T22:49:03.503Z,19.56
2018-03-20T22:53:31.673Z,19.47
2018-03-20T22:54:31.809Z,19.34
2018-03-20T22:55:31.926Z,19.38
2018-03-20T22:56:32.055Z,19.47
2018-03-20T22:57:32.187Z,19.42
2018-03-20T22:58:32.317Z,19.45
2018-03-20T22:59:32.449Z,19.47
2018-03-20T23:00:32.574Z,19.42
2018-03-20T23:01:32.698Z,19.42
2018-03-20T23:02:32.855Z,19.32
2018-03-20T23:03:32.982Z,19.32
2018-03-20T23:04:33.115Z,19.41
2018-03-20T23:05:33.248Z,19.35
2018-03-20T23:06:33.377Z,19.42
2018-03-20T23:07:33.508Z,19.26
2018-03-20T23:08:33.640Z,19.32
2018-03-20T23:09:36.791Z,19.32
2018-03-20T23:10:33.923Z,19.34
2018-03-20T23:11:34.061Z,19.20
2018-03-20T23:12:34.180Z,19.23
2018-03-20T23:13:34.325Z,19.27
2018-03-20T23:14:34.456Z,19.35
2018-03-20T23:15:34.587Z,19.30
2018-03-20T23:16:34.714Z,19.34
2018-03-20T23:17:34.848Z,19.26
2018-03-20T23:18:34.975Z,19.37
2018-03-20T23:19:35.108Z,19.37
2018-03-20T23:20:35.760Z,19.35
2018-03-20T23:25:03.701Z,19.30
2018-03-20T23:26:03.841Z,19.32
2018-03-20T23:27:03.962Z,19.32
2018-03-20T23:28:04.092Z,19.22
2018-03-20T23:29:04.217Z,19.24
2018-03-20T23:30:04.360Z,19.31
2018-03-20T23:31:04.487Z,19.37
2018-03-20T23:32:04.623Z,19.30
2018-03-20T23:33:04.747Z,19.34
2018-03-20T23:34:04.895Z,19.27
2018-03-20T23:35:05.027Z,19.27
2018-03-20T23:36:05.354Z,19.22
2018-03-20T23:39:01.804Z,19.23
2018-03-20T23:40:02.026Z,19.23
2018-03-20T23:41:02.000Z,19.20
2018-03-20T23:42:02.135Z,19.24
2018-03-20T23:43:02.249Z,19.15
2018-03-20T23:44:02.387Z,19.08
2018-03-20T23:45:02.525Z,19.19
2018-03-20T23:46:02.656Z,19.09
2018-03-20T23:47:02.781Z,19.05
2018-03-20T23:48:02.903Z,19.00
2018-03-20T23:49:03.033Z,19.07
2018-03-20T23:50:03.400Z,19.05
2018-03-20T23:54:32.543Z,19.17
2018-03-20T23:55:32.668Z,19.22
2018-03-20T23:56:32.808Z,19.17
2018-03-20T23:57:32.940Z,19.12
2018-03-20T23:58:33.062Z,19.07
2018-03-20T23:59:33.192Z,19.12
